Earlysville, VA (22936)

10:39 AM EST on January 18, 2017 (GMT -0500)
Forest Grove | | Change Station
Active Advisory: Small Craft Advisory

Elev 522 ft 38.13 °N, 78.43 °W | Updated 1 minute ago

Scattered Clouds
Scattered Clouds
57.2 °F
Feels Like 57.2 °F
N
7.0
Wind Variable Wind from NW

Today
High -- | Low -- °F
--% Chance of Precip.
Yesterday
High -- | Low -- °F
Precip. -- in
Pressure 29.97 in
Visibility 10.0 miles
Clouds Few 4900 ft
Scattered Clouds 7000 ft
Dew Point 41 °F
Humidity 55%
Rainfall 0.00 in
Snow Depth Not available.
7:27 AM 5:21 PM
Waning Gibbous, 62% visible
METAR KCHO 181453Z 32009KT 10SM FEW049 SCT070 15/08 A2997 RMK AO2 SLP147 T01500078 53025
Pressure 29.97 in
Visibility 10.0 miles
Clouds Few 4900 ft
Scattered Clouds 7000 ft
Dew Point 41 °F
Humidity 55%
Rainfall 0.00 in
Snow Depth Not available.
7:27 AM 5:21 PM
Waning Gibbous, 62% visible
METAR KCHO 181453Z 32009KT 10SM FEW049 SCT070 15/08 A2997 RMK AO2 SLP147 T01500078 53025

Get Your Daily Forecast Email!

Thanks for signing up!

Be on the lookout for a verification email in your inbox.

You'll start receiving the daily forecast at 8 AM.

×

10-Day Weather Forecast

Almanac

Astronomy

Jan. 18, 2017 Rise Set
Actual Time
Civil Twilight
Nautical Twilight
Astronomical Twilight
Moon
Length of Visible Light
Length of Day
Tomorrow will be .
, % of the Moon is Illuminated

Today's Extremes

State Highs State Lows

Community

WunderPhotos

Upload Photos

1,962,540 photos uploaded!

WunderBlog® & News

Nearby

Air Quality

  Air Quality AQ Index Pollutant
Not available.

Snow Depth

Station Depth Elevation

Earthquake Activity

City Distance Mag. Time & Date
Minimum magnitude displayed is 2.5.

Coastal Water Temperatures

Place Temperature

Stations

Nearby Weather Stations

Station Location Temp. Windchill Dew Point Humidity Wind Precip. Elev Updated Type
                   

Watches & Warnings

Small Craft Advisory
Issued: 9:27 AM EST Jan. 18, 2017 – National Weather Service

... Small Craft Advisory now in effect until 8 PM EST this
evening...

* winds... 18 to 33 knots within the Small Craft Advisory.

Precautionary/preparedness actions...

A Small Craft Advisory means winds of 18 to 33 knots are imminent
or occurring. Boaters operating smaller vessels should avoid
navigating in these conditions.